createdAt,value
2019-02-20T00:00:03.910Z,7.05
2019-02-20T00:01:05.175Z,6.93
2019-02-20T00:02:06.945Z,6.8
2019-02-20T00:03:07.156Z,6.77
2019-02-20T00:04:07.418Z,6.72
2019-02-20T00:05:08.148Z,6.7
2019-02-20T00:06:09.136Z,6.77
2019-02-20T00:07:09.848Z,6.72
2019-02-20T00:08:10.847Z,6.72
2019-02-20T00:09:11.714Z,6.72
2019-02-20T00:10:11.711Z,6.74
2019-02-20T00:11:12.401Z,6.77
2019-02-20T00:12:13.407Z,6.72
2019-02-20T00:13:13.548Z,6.77
2019-02-20T00:14:14.800Z,6.8
2019-02-20T00:15:15.666Z,6.8
2019-02-20T00:16:16.084Z,6.78
2019-02-20T00:17:17.059Z,6.85
2019-02-20T00:18:17.032Z,6.86
2019-02-20T00:19:18.010Z,6.92
2019-02-20T00:20:19.059Z,6.87
2019-02-20T00:21:19.029Z,6.86
2019-02-20T00:22:20.022Z,6.82
2019-02-20T00:23:20.712Z,6.7
2019-02-20T00:24:20.960Z,6.7
2019-02-20T00:25:21.667Z,6.65
2019-02-20T00:26:22.917Z,6.75
2019-02-20T00:27:23.627Z,6.71
2019-02-20T00:28:24.603Z,6.8
2019-02-20T00:29:26.562Z,6.71
2019-02-20T00:30:26.548Z,6.67
2019-02-20T00:31:27.654Z,6.57
2019-02-20T00:32:28.070Z,6.62
2019-02-20T00:33:29.469Z,6.59
2019-02-20T00:34:30.438Z,6.53
2019-02-20T00:35:31.696Z,6.52
2019-02-20T00:36:31.675Z,6.46
2019-02-20T00:37:32.690Z,6.41
2019-02-20T00:38:34.215Z,6.32
2019-02-20T00:39:33.912Z,6.41
2019-02-20T00:40:34.609Z,6.32
2019-02-20T00:41:35.941Z,6.35
2019-02-20T00:42:36.370Z,6.36
2019-02-20T00:43:36.628Z,6.47
2019-02-20T00:44:38.070Z,6.43
2019-02-20T00:45:39.774Z,6.49
2019-02-20T00:46:40.476Z,6.43
2019-02-20T00:47:41.193Z,6.44
2019-02-20T00:48:42.165Z,6.46
2019-02-20T00:49:42.864Z,6.59
2019-02-20T00:50:43.560Z,6.52
2019-02-20T00:51:44.852Z,6.52
2019-02-20T00:52:51.616Z,6.49
2019-02-20T00:52:57.602Z,6.44
2019-02-20T00:53:57.869Z,6.49
2019-02-20T00:54:58.564Z,6.43
2019-02-20T00:55:59.103Z,6.41
2019-02-20T00:57:00.093Z,6.41
2019-02-20T00:58:01.105Z,6.38
2019-02-20T00:59:02.123Z,6.43
2019-02-20T01:00:02.392Z,6.47
2019-02-20T01:01:03.084Z,6.44
2019-02-20T01:02:03.454Z,6.46
2019-02-20T01:03:04.153Z,6.46
2019-02-20T01:04:05.004Z,6.49
2019-02-20T01:05:06.346Z,6.54
2019-02-20T01:06:06.761Z,6.64
2019-02-20T01:07:06.944Z,6.59
2019-02-20T01:08:07.690Z,6.46
2019-02-20T01:09:08.676Z,6.47
2019-02-20T01:10:08.934Z,6.44
2019-02-20T01:11:09.906Z,6.34
2019-02-20T01:12:10.342Z,6.31
2019-02-20T01:13:11.588Z,6.2
2019-02-20T01:14:12.459Z,6.26
2019-02-20T01:15:12.878Z,6.12
2019-02-20T01:16:14.148Z,6.25
2019-02-20T01:17:13.855Z,6.22
2019-02-20T01:18:15.433Z,6.22
2019-02-20T01:19:14.890Z,6.35
2019-02-20T01:20:16.174Z,6.36
2019-02-20T01:21:16.905Z,6.38
2019-02-20T01:22:17.873Z,6.44
2019-02-20T01:23:18.593Z,6.32
2019-02-20T01:24:18.864Z,6.43
2019-02-20T01:25:20.698Z,6.38
2019-02-20T01:26:21.390Z,6.36
2019-02-20T01:27:22.371Z,6.35
2019-02-20T01:28:23.101Z,6.38
2019-02-20T01:29:24.109Z,6.32
2019-02-20T01:30:25.079Z,6.38
2019-02-20T01:31:25.770Z,6.38
2019-02-20T01:32:26.465Z,6.29
2019-02-20T01:33:27.001Z,6.22
2019-02-20T01:34:27.974Z,6.22
2019-02-20T01:35:28.672Z,6.32
2019-02-20T01:36:29.969Z,6.34
2019-02-20T01:37:30.386Z,6.29
2019-02-20T01:38:31.083Z,6.26
2019-02-20T01:39:32.611Z,6.19
2019-02-20T01:40:32.300Z,6.16
2019-02-20T01:41:33.287Z,6.1
2019-02-20T01:42:33.712Z,6.09
2019-02-20T01:43:34.244Z,6.01
2019-02-20T01:44:35.126Z,6.07
2019-02-20T01:45:35.827Z,5.97
2019-02-20T01:46:37.374Z,5.92
2019-02-20T01:47:38.372Z,5.97
2019-02-20T01:48:39.081Z,6.1
2019-02-20T01:49:39.502Z,5.98
2019-02-20T01:50:39.933Z,6.06
2019-02-20T01:51:40.911Z,6.12
2019-02-20T01:52:41.334Z,6.05
2019-02-20T01:53:42.313Z,6.09
2019-02-20T01:54:43.064Z,6.06
2019-02-20T01:55:44.062Z,6.02
2019-02-20T01:56:44.492Z,5.94
2019-02-20T01:57:44.917Z,5.87
2019-02-20T01:58:46.232Z,5.81
2019-02-20T01:59:45.934Z,5.77
2019-02-20T02:00:47.343Z,5.62
2019-02-20T02:01:48.610Z,5.61
2019-02-20T02:02:49.330Z,5.55
2019-02-20T02:03:49.484Z,5.47
2019-02-20T02:04:51.088Z,5.56
2019-02-20T02:05:50.791Z,5.49
2019-02-20T02:06:51.793Z,5.61
2019-02-20T02:07:52.502Z,5.72
2019-02-20T02:08:53.779Z,5.76
2019-02-20T02:09:54.486Z,5.72
2019-02-20T02:10:55.456Z,5.72
2019-02-20T02:11:56.150Z,5.81
2019-02-20T02:12:57.140Z,5.77
2019-02-20T02:13:57.569Z,5.83
2019-02-20T02:14:58.704Z,5.88
2019-02-20T02:16:00.058Z,5.91
2019-02-20T02:17:01.339Z,5.94
2019-02-20T02:18:01.034Z,5.9
2019-02-20T02:19:02.049Z,5.9
2019-02-20T02:20:02.591Z,5.98
2019-02-20T02:21:03.292Z,5.94
2019-02-20T02:22:04.275Z,5.8
2019-02-20T02:23:05.243Z,5.79
2019-02-20T02:24:06.260Z,5.79
2019-02-20T02:25:07.277Z,5.74
2019-02-20T02:26:12.323Z,5.72
2019-02-20T02:27:13.047Z,5.73
2019-02-20T02:28:13.782Z,5.72
2019-02-20T02:29:14.767Z,5.73
2019-02-20T02:30:15.326Z,5.74
2019-02-20T02:31:15.642Z,5.72
2019-02-20T02:32:16.246Z,5.7
2019-02-20T02:33:17.299Z,5.62
2019-02-20T02:34:18.288Z,5.58
2019-02-20T02:35:19.034Z,5.72
2019-02-20T02:36:20.288Z,5.67
2019-02-20T02:37:21.728Z,5.72
2019-02-20T02:38:21.823Z,5.72
2019-02-20T02:39:22.070Z,5.77
2019-02-20T02:40:23.064Z,5.84
2019-02-20T02:41:24.362Z,5.95
2019-02-20T02:42:25.333Z,5.9
2019-02-20T02:43:26.339Z,5.98
2019-02-20T02:44:27.928Z,5.91
2019-02-20T02:45:28.285Z,5.99
2019-02-20T02:46:29.659Z,5.92
2019-02-20T02:47:30.653Z,6.02
2019-02-20T02:48:31.072Z,5.92
2019-02-20T02:49:32.423Z,6.06
2019-02-20T02:50:32.958Z,5.95
2019-02-20T02:51:33.219Z,5.97
2019-02-20T02:52:34.481Z,5.91
2019-02-20T02:53:35.786Z,5.92
2019-02-20T02:54:35.802Z,5.91
2019-02-20T02:55:36.284Z,5.99
2019-02-20T02:56:37.548Z,5.94
2019-02-20T02:57:38.591Z,5.99
2019-02-20T02:58:39.022Z,6.01
2019-02-20T02:59:40.578Z,5.91
2019-02-20T03:00:41.098Z,5.94
2019-02-20T03:01:42.096Z,5.9
2019-02-20T03:02:43.341Z,5.88
2019-02-20T03:03:44.058Z,5.92
2019-02-20T03:04:45.056Z,5.84
2019-02-20T03:05:46.058Z,5.72
2019-02-20T03:06:46.876Z,5.69
2019-02-20T03:07:47.145Z,5.58
2019-02-20T03:08:47.688Z,5.61
2019-02-20T03:09:48.414Z,5.59
2019-02-20T03:10:48.740Z,5.52
2019-02-20T03:11:49.428Z,5.52
2019-02-20T03:12:50.433Z,5.55
2019-02-20T03:13:51.148Z,5.37
2019-02-20T03:14:52.126Z,5.44
2019-02-20T03:15:53.108Z,5.37
2019-02-20T03:16:53.248Z,5.38
2019-02-20T03:17:53.975Z,5.41
2019-02-20T03:18:54.671Z,5.37
2019-02-20T03:19:55.394Z,5.36
2019-02-20T03:20:56.643Z,5.31
2019-02-20T03:21:56.907Z,5.26
2019-02-20T03:22:57.181Z,5.25
2019-02-20T03:23:57.881Z,5.25
2019-02-20T03:24:58.272Z,5.22
2019-02-20T03:25:58.706Z,5.31
2019-02-20T03:26:59.147Z,5.28
2019-02-20T03:28:00.397Z,5.31
2019-02-20T03:29:00.381Z,5.29
2019-02-20T03:30:01.231Z,5.28
2019-02-20T03:31:02.107Z,5.34
2019-02-20T03:32:02.240Z,5.36
2019-02-20T03:33:03.379Z,5.4
2019-02-20T03:34:04.735Z,5.33
2019-02-20T03:35:04.306Z,5.36
2019-02-20T03:36:05.729Z,5.29
2019-02-20T03:37:06.708Z,5.37
2019-02-20T03:38:07.413Z,5.37
2019-02-20T03:39:08.683Z,5.41
2019-02-20T03:40:09.670Z,5.44
2019-02-20T03:41:10.316Z,5.4
2019-02-20T03:42:11.027Z,5.43
2019-02-20T03:43:12.144Z,5.4
2019-02-20T03:44:12.421Z,5.46
2019-02-20T03:45:13.128Z,5.4
2019-02-20T03:46:13.872Z,5.38
2019-02-20T03:47:14.861Z,5.47
2019-02-20T03:48:15.860Z,5.44
2019-02-20T03:49:16.559Z,5.4
2019-02-20T03:50:16.986Z,5.29
2019-02-20T03:51:17.981Z,5.28
2019-02-20T03:52:19.237Z,5.22
2019-02-20T03:53:20.209Z,5.12
2019-02-20T03:54:20.916Z,5.05
2019-02-20T03:55:21.892Z,5
2019-02-20T03:56:22.895Z,4.83
2019-02-20T03:57:23.607Z,4.87
2019-02-20T03:58:23.853Z,4.86
2019-02-20T03:59:24.545Z,4.83
2019-02-20T04:00:24.839Z,4.79
2019-02-20T04:01:25.808Z,4.75
2019-02-20T04:02:27.359Z,4.68
2019-02-20T04:03:28.460Z,4.78
2019-02-20T04:04:28.888Z,4.64
2019-02-20T04:05:29.878Z,4.75
2019-02-20T04:06:30.337Z,4.68
2019-02-20T04:07:31.788Z,4.68
2019-02-20T04:08:32.626Z,4.71
2019-02-20T04:09:33.431Z,4.71
2019-02-20T04:10:33.412Z,4.64
2019-02-20T04:11:34.426Z,4.68
2019-02-20T04:12:35.133Z,4.71
2019-02-20T04:13:35.549Z,4.67
2019-02-20T04:14:36.240Z,4.63
2019-02-20T04:15:38.226Z,4.78
2019-02-20T04:16:38.491Z,4.66
2019-02-20T04:17:38.926Z,4.63
2019-02-20T04:18:40.169Z,4.63
2019-02-20T04:19:40.420Z,4.66
2019-02-20T04:20:41.131Z,4.66
2019-02-20T04:21:41.280Z,4.63
2019-02-20T04:22:42.829Z,4.56
2019-02-20T04:23:43.077Z,4.58
2019-02-20T04:24:44.069Z,4.57
2019-02-20T04:25:44.598Z,4.6
2019-02-20T04:26:45.649Z,4.6
2019-02-20T04:27:47.069Z,4.57
2019-02-20T04:28:48.061Z,4.61
2019-02-20T04:29:49.010Z,4.5
2019-02-20T04:30:48.980Z,4.57
2019-02-20T04:31:49.689Z,4.53
2019-02-20T04:32:49.899Z,4.56
2019-02-20T04:33:50.048Z,4.63
2019-02-20T04:34:51.073Z,4.7
2019-02-20T04:35:51.565Z,4.68
2019-02-20T04:36:52.548Z,4.76
2019-02-20T04:37:52.964Z,4.79
2019-02-20T04:38:55.049Z,4.75
2019-02-20T04:39:55.345Z,4.95
2019-02-20T04:40:56.363Z,4.76
2019-02-20T04:41:57.610Z,4.84
2019-02-20T04:43:00.322Z,4.78
2019-02-20T04:44:00.565Z,4.78
2019-02-20T04:45:01.357Z,4.78
2019-02-20T04:46:02.369Z,4.83
2019-02-20T04:47:03.910Z,4.83
2019-02-20T04:48:04.449Z,4.84
2019-02-20T04:49:04.985Z,4.79
2019-02-20T04:50:04.958Z,4.79
2019-02-20T04:51:05.643Z,4.83
2019-02-20T04:52:06.359Z,4.84
2019-02-20T04:53:06.773Z,4.82
2019-02-20T04:54:20.791Z,4.83
2019-02-20T04:55:20.945Z,4.75
2019-02-20T04:56:21.631Z,4.82
2019-02-20T04:57:22.663Z,4.68
2019-02-20T04:58:23.464Z,4.64
2019-02-20T04:59:24.421Z,4.57
2019-02-20T05:00:25.392Z,4.56
2019-02-20T05:01:25.097Z,4.58
2019-02-20T05:02:25.781Z,4.56
2019-02-20T05:03:26.038Z,4.56
2019-02-20T05:04:27.302Z,4.52
2019-02-20T05:05:27.990Z,4.56
2019-02-20T05:06:28.229Z,4.61
2019-02-20T05:07:28.539Z,4.58
2019-02-20T05:08:28.829Z,4.61
2019-02-20T05:09:29.288Z,4.53
2019-02-20T05:10:29.258Z,4.57
2019-02-20T05:11:30.329Z,4.57
2019-02-20T05:12:30.853Z,4.5
2019-02-20T05:13:31.387Z,4.48
2019-02-20T05:14:31.348Z,4.31
2019-02-20T05:15:31.786Z,4.38
2019-02-20T05:16:32.489Z,4.25
2019-02-20T05:17:32.755Z,4.25
2019-02-20T05:18:33.523Z,4.24
2019-02-20T05:19:33.821Z,4.13
2019-02-20T05:20:34.527Z,4.09
2019-02-20T05:21:35.793Z,4.12
2019-02-20T05:22:36.223Z,4.02
2019-02-20T05:23:37.231Z,4.07
2019-02-20T05:24:37.690Z,4.02
2019-02-20T05:25:38.507Z,4.09
2019-02-20T05:26:38.422Z,4.14
2019-02-20T05:27:39.964Z,4.16
2019-02-20T05:28:39.651Z,4.09
2019-02-20T05:29:40.935Z,4.16
2019-02-20T05:30:41.905Z,4.12
2019-02-20T05:31:42.164Z,4.02
2019-02-20T05:32:42.425Z,4.02
2019-02-20T05:33:43.677Z,4.06
2019-02-20T05:34:44.363Z,4.02
2019-02-20T05:35:45.414Z,4.06
2019-02-20T05:36:45.666Z,4.07
2019-02-20T05:37:47.354Z,4.12
2019-02-20T05:38:48.324Z,4.16
2019-02-20T05:39:48.746Z,4.2
2019-02-20T05:40:50.001Z,4.24
2019-02-20T05:41:51.240Z,4.16
2019-02-20T05:42:51.782Z,4.13
2019-02-20T05:43:52.351Z,4.07
2019-02-20T05:44:53.042Z,4.03
2019-02-20T05:45:53.512Z,4.06
2019-02-20T05:46:55.084Z,4.13
2019-02-20T05:47:55.803Z,4.14
2019-02-20T05:48:56.497Z,4.1
2019-02-20T05:49:57.041Z,4.03
2019-02-20T05:50:58.028Z,4.12
2019-02-20T05:51:59.289Z,4.03
2019-02-20T05:52:59.272Z,4.06
2019-02-20T05:54:00.245Z,4.02
2019-02-20T05:55:00.525Z,4.06
2019-02-20T05:56:01.149Z,4.12
2019-02-20T05:57:01.984Z,4.16
2019-02-20T05:58:02.678Z,4.14
2019-02-20T05:59:03.570Z,4.16
2019-02-20T06:00:03.981Z,4.22
2019-02-20T06:01:04.613Z,4.24
2019-02-20T06:02:05.316Z,4.28
2019-02-20T06:03:06.707Z,4.25
2019-02-20T06:04:07.223Z,4.28
2019-02-20T06:05:07.846Z,4.32
2019-02-20T06:06:08.952Z,4.34
2019-02-20T06:07:09.639Z,4.31
2019-02-20T06:08:10.345Z,4.48
2019-02-20T06:09:11.073Z,4.46
2019-02-20T06:10:11.782Z,4.43
2019-02-20T06:11:16.712Z,4.58
2019-02-20T06:12:17.971Z,4.57
2019-02-20T06:13:17.658Z,4.52
2019-02-20T06:14:18.663Z,4.58
2019-02-20T06:15:19.845Z,4.66
2019-02-20T06:16:20.241Z,4.66
2019-02-20T06:17:21.231Z,4.63
2019-02-20T06:18:22.759Z,4.66
2019-02-20T06:19:23.536Z,4.74
2019-02-20T06:20:24.539Z,4.71
2019-02-20T06:21:26.355Z,4.82
2019-02-20T06:22:26.870Z,4.75
2019-02-20T06:23:27.489Z,4.7
2019-02-20T06:24:29.044Z,4.7
2019-02-20T06:25:29.721Z,4.63
2019-02-20T06:26:30.328Z,4.63
2019-02-20T06:27:30.928Z,4.68
2019-02-20T06:28:31.447Z,4.58
2019-02-20T06:29:32.331Z,4.64
2019-02-20T06:30:32.887Z,4.66
2019-02-20T06:31:32.859Z,4.68
2019-02-20T06:32:33.554Z,4.68
2019-02-20T06:33:33.815Z,4.66
2019-02-20T06:34:34.857Z,4.66
2019-02-20T06:35:35.582Z,4.66
2019-02-20T06:36:36.809Z,4.6
2019-02-20T06:37:38.077Z,4.61
2019-02-20T06:38:38.971Z,4.56
2019-02-20T06:39:39.353Z,4.57
2019-02-20T06:40:40.613Z,4.66
2019-02-20T06:41:40.967Z,4.66
2019-02-20T06:42:41.661Z,4.74
2019-02-20T06:43:43.595Z,4.66
2019-02-20T06:44:44.321Z,4.75
2019-02-20T06:45:44.462Z,4.83
2019-02-20T06:46:45.418Z,4.75
2019-02-20T06:47:45.998Z,4.82
2019-02-20T06:48:45.963Z,4.76
2019-02-20T06:49:47.377Z,4.82
2019-02-20T06:50:48.258Z,4.83
2019-02-20T06:51:48.950Z,4.87
2019-02-20T06:52:49.369Z,4.86
2019-02-20T06:53:50.073Z,4.86
2019-02-20T06:54:55.444Z,4.89
2019-02-20T06:55:03.010Z,4.76
2019-02-20T06:56:03.468Z,4.76
2019-02-20T06:57:04.225Z,4.82
2019-02-20T06:58:04.483Z,4.82
2019-02-20T06:59:06.571Z,4.82
2019-02-20T07:00:06.200Z,4.84
2019-02-20T07:01:06.285Z,4.76
2019-02-20T07:02:06.994Z,4.92
2019-02-20T07:03:07.608Z,4.84
2019-02-20T07:04:08.819Z,4.9
2019-02-20T07:05:09.523Z,4.79
2019-02-20T07:06:10.028Z,4.78
2019-02-20T07:07:10.719Z,4.82
2019-02-20T07:08:11.425Z,4.87
2019-02-20T07:09:12.145Z,4.87
2019-02-20T07:10:13.547Z,4.89
2019-02-20T07:11:16.871Z,4.83
2019-02-20T07:12:16.857Z,4.97
2019-02-20T07:13:18.143Z,5.02
2019-02-20T07:14:19.905Z,4.98
2019-02-20T07:15:21.314Z,5
2019-02-20T07:16:21.123Z,4.98
2019-02-20T07:17:21.961Z,4.94
2019-02-20T07:18:21.872Z,4.94
2019-02-20T07:19:22.563Z,5
2019-02-20T07:20:23.543Z,5
2019-02-20T07:21:23.955Z,5.02
2019-02-20T07:22:24.769Z,4.95
2019-02-20T07:23:27.521Z,5.1
2019-02-20T07:24:26.841Z,5.07
2019-02-20T07:25:27.672Z,5.04
2019-02-20T07:26:28.540Z,5.07
2019-02-20T07:27:29.241Z,5.1
2019-02-20T07:28:30.210Z,5.13
2019-02-20T07:29:31.215Z,5.15
2019-02-20T07:30:32.199Z,5.18
2019-02-20T07:31:32.896Z,5.12
2019-02-20T07:32:34.768Z,5.15
2019-02-20T07:33:34.523Z,5.18
2019-02-20T07:34:36.102Z,5.08
2019-02-20T07:35:36.123Z,5.15
2019-02-20T07:36:36.905Z,5.15
2019-02-20T07:37:37.622Z,5.12
2019-02-20T07:38:38.914Z,5.18
2019-02-20T07:39:39.675Z,5.19
2019-02-20T07:40:39.401Z,5.23
2019-02-20T07:41:40.633Z,5.28
2019-02-20T07:42:41.631Z,5.37
2019-02-20T07:43:42.333Z,5.25
2019-02-20T07:44:42.484Z,5.28
2019-02-20T07:45:43.555Z,5.2
2019-02-20T07:46:43.759Z,5.13
2019-02-20T07:47:44.734Z,5.12
2019-02-20T07:48:44.428Z,5.12
2019-02-20T07:49:44.911Z,5.2
2019-02-20T07:50:45.918Z,5.22
2019-02-20T07:51:46.339Z,5.22
2019-02-20T07:52:47.621Z,5.2
2019-02-20T07:53:47.716Z,5.26
2019-02-20T07:54:48.181Z,5.33
2019-02-20T07:55:48.879Z,5.37
2019-02-20T07:56:48.819Z,5.44
2019-02-20T07:57:49.821Z,5.51
2019-02-20T07:58:51.188Z,5.55
2019-02-20T07:59:52.165Z,5.51
2019-02-20T08:00:52.967Z,5.51
2019-02-20T08:01:53.535Z,5.52
2019-02-20T08:02:54.797Z,5.46
2019-02-20T08:03:55.607Z,5.51
2019-02-20T08:04:56.327Z,5.55
2019-02-20T08:05:57.056Z,5.4
2019-02-20T08:06:58.293Z,5.51
2019-02-20T08:08:01.170Z,5.44
2019-02-20T08:08:13.488Z,5.46
2019-02-20T08:08:26.427Z,5.58
2019-02-20T08:08:39.095Z,5.55
2019-02-20T08:08:48.786Z,5.55
2019-02-20T08:09:49.073Z,5.52
2019-02-20T08:10:49.069Z,5.52
2019-02-20T08:11:51.138Z,5.43
2019-02-20T08:12:51.720Z,5.61
2019-02-20T08:13:51.978Z,5.55
2019-02-20T08:14:52.670Z,5.55
2019-02-20T08:15:53.635Z,5.44
2019-02-20T08:16:54.635Z,5.59
2019-02-20T08:17:55.605Z,5.49
2019-02-20T08:18:56.355Z,5.54
2019-02-20T08:19:57.778Z,5.64
2019-02-20T08:20:58.517Z,5.58
2019-02-20T08:22:00.234Z,5.64
2019-02-20T08:23:00.856Z,5.46
2019-02-20T08:24:01.484Z,5.56
2019-02-20T08:25:02.134Z,5.52
2019-02-20T08:26:03.129Z,5.58
2019-02-20T08:27:03.741Z,5.74
2019-02-20T08:28:04.375Z,5.73
2019-02-20T08:29:05.369Z,5.61
2019-02-20T08:30:06.607Z,5.67
2019-02-20T08:31:07.368Z,5.67
2019-02-20T08:32:08.337Z,5.61
2019-02-20T08:33:08.752Z,5.73
2019-02-20T08:34:09.889Z,5.8
2019-02-20T08:35:10.419Z,5.77
2019-02-20T08:36:11.115Z,5.95
2019-02-20T08:37:12.342Z,6.07
2019-02-20T08:38:12.097Z,6.17
2019-02-20T08:39:12.786Z,6.39
2019-02-20T08:40:12.886Z,6.35
2019-02-20T08:41:14.305Z,6.36
2019-02-20T08:42:14.771Z,6.57
2019-02-20T08:43:16.491Z,6.68
2019-02-20T08:44:16.197Z,6.68
2019-02-20T08:45:17.061Z,6.89
2019-02-20T08:46:18.090Z,6.97
2019-02-20T08:47:18.563Z,7.13
2019-02-20T08:48:19.854Z,7.15
2019-02-20T08:49:21.069Z,7.28
2019-02-20T08:50:23.122Z,7.18
2019-02-20T08:51:23.131Z,7.32
2019-02-20T08:52:26.067Z,7.53
2019-02-20T08:52:37.108Z,7.58
2019-02-20T08:53:36.739Z,7.64
2019-02-20T08:54:37.155Z,7.88
2019-02-20T08:55:37.982Z,7.85
2019-02-20T08:56:38.803Z,7.85
2019-02-20T08:57:39.842Z,7.81
2019-02-20T08:58:40.262Z,7.88
2019-02-20T08:59:41.700Z,7.99
2019-02-20T09:00:42.673Z,8.13
2019-02-20T09:01:44.508Z,8.28
2019-02-20T09:02:44.784Z,8.39
2019-02-20T09:03:45.612Z,8.42
2019-02-20T09:04:45.900Z,8.5
2019-02-20T09:05:47.272Z,8.57
2019-02-20T09:06:50.365Z,8.99
2019-02-20T09:07:02.777Z,9.02
2019-02-20T09:07:14.646Z,9.08
2019-02-20T09:08:12.702Z,9.33
2019-02-20T09:09:13.676Z,9.52
2019-02-20T09:10:14.097Z,9.72
2019-02-20T09:11:15.257Z,9.95
2019-02-20T09:12:15.842Z,10.1
2019-02-20T09:13:16.121Z,10.09
2019-02-20T09:14:16.896Z,9.88
2019-02-20T09:15:17.893Z,9.88
2019-02-20T09:16:18.710Z,9.7
2019-02-20T09:17:19.846Z,9.62
2019-02-20T09:18:21.007Z,9.59
2019-02-20T09:19:20.704Z,9.64
2019-02-20T09:20:21.410Z,9.58
2019-02-20T09:21:22.571Z,9.62
2019-02-20T09:22:23.119Z,9.7
2019-02-20T09:23:24.987Z,9.74
2019-02-20T09:24:25.266Z,9.7
2019-02-20T09:25:28.380Z,9.97
2019-02-20T09:26:28.064Z,9.94
2019-02-20T09:27:29.501Z,10.05
2019-02-20T09:28:29.525Z,9.94
2019-02-20T09:29:32.470Z,9.97
2019-02-20T09:30:31.588Z,9.87
2019-02-20T09:31:32.186Z,9.74
2019-02-20T09:32:32.893Z,9.76
2019-02-20T09:33:33.874Z,9.69
2019-02-20T09:34:35.356Z,9.59
2019-02-20T09:35:36.728Z,9.52
2019-02-20T09:36:36.869Z,9.66
2019-02-20T09:37:41.297Z,9.7
2019-02-20T09:37:52.081Z,9.77
2019-02-20T09:38:50.441Z,9.84
2019-02-20T09:39:50.588Z,9.87
2019-02-20T09:40:51.280Z,10.39
2019-02-20T09:41:51.700Z,10.59
2019-02-20T09:42:52.403Z,10.62
2019-02-20T09:43:53.370Z,10.48
2019-02-20T09:44:53.710Z,10.27
2019-02-20T09:45:55.413Z,10.17
2019-02-20T09:46:55.640Z,10.07
2019-02-20T09:47:56.104Z,9.95
2019-02-20T09:48:56.854Z,9.84
2019-02-20T09:49:57.870Z,10.02
2019-02-20T09:50:58.295Z,10.12
2019-02-20T09:51:59.290Z,10.21
2019-02-20T09:52:59.993Z,10.34
2019-02-20T09:54:00.696Z,10.28
2019-02-20T09:55:01.692Z,10.23
2019-02-20T09:56:02.793Z,10.31
2019-02-20T09:57:03.825Z,10.46
2019-02-20T09:58:03.810Z,10.68
2019-02-20T09:59:04.318Z,10.71
2019-02-20T10:00:09.286Z,10.62
2019-02-20T10:00:18.005Z,10.65
2019-02-20T10:01:22.670Z,10.76
2019-02-20T10:01:33.601Z,10.82
2019-02-20T10:02:31.930Z,10.9
2019-02-20T10:03:32.749Z,10.9
2019-02-20T10:04:33.186Z,11.04
2019-02-20T10:05:34.643Z,11.02
2019-02-20T10:06:35.349Z,11.13
2019-02-20T10:07:36.061Z,11.12
2019-02-20T10:08:37.527Z,11.4
2019-02-20T10:09:38.246Z,11.4
2019-02-20T10:10:38.537Z,11.62
2019-02-20T10:11:39.239Z,11.88
2019-02-20T10:12:40.610Z,11.95
2019-02-20T10:13:41.342Z,12.17
2019-02-20T10:14:42.329Z,12.3
2019-02-20T10:15:43.613Z,12.39
2019-02-20T10:16:43.597Z,12.3
2019-02-20T10:17:44.095Z,12.4
2019-02-20T10:18:48.983Z,12.4
2019-02-20T10:18:59.714Z,12.51
2019-02-20T10:19:57.288Z,12.48
2019-02-20T10:20:57.986Z,12.8
2019-02-20T10:22:03.206Z,12.81
2019-02-20T10:22:13.970Z,12.76
2019-02-20T10:23:16.186Z,13.16
2019-02-20T10:24:13.578Z,13.46
2019-02-20T10:25:14.291Z,13.82
2019-02-20T10:26:15.858Z,13.83
2019-02-20T10:27:16.994Z,14
2019-02-20T10:28:17.419Z,14.41
2019-02-20T10:29:19.026Z,14.66
2019-02-20T10:30:19.585Z,14.9
2019-02-20T10:31:20.731Z,14.99
2019-02-20T10:32:20.187Z,15.32
2019-02-20T10:33:23.802Z,15.5
2019-02-20T10:34:23.150Z,15.47
2019-02-20T10:35:23.906Z,15.14
2019-02-20T10:36:24.612Z,15.08
2019-02-20T10:37:25.334Z,15.45
2019-02-20T10:38:26.621Z,15.52
2019-02-20T10:39:27.892Z,15.63
2019-02-20T10:40:28.595Z,15.69
2019-02-20T10:41:29.576Z,15.73
2019-02-20T10:42:29.872Z,16.21
2019-02-20T10:43:30.926Z,16.25
2019-02-20T10:44:31.664Z,16.57
2019-02-20T10:45:32.815Z,16.66
2019-02-20T10:46:33.522Z,16.58
2019-02-20T10:47:34.239Z,16.79
2019-02-20T10:48:35.145Z,16.83
2019-02-20T10:49:37.525Z,16.8
2019-02-20T10:50:36.814Z,16.95
2019-02-20T10:51:38.245Z,16.83
2019-02-20T10:52:38.958Z,16.86
2019-02-20T10:53:42.621Z,16.64
2019-02-20T10:54:40.936Z,16.62
2019-02-20T10:55:41.747Z,16.65
2019-02-20T10:56:42.882Z,16.57
2019-02-20T10:57:43.121Z,16.62
2019-02-20T10:58:44.104Z,16.62
2019-02-20T10:59:44.806Z,16.58
2019-02-20T11:00:45.277Z,16.76
2019-02-20T11:01:45.702Z,16.61
2019-02-20T11:02:46.697Z,16.54
2019-02-20T11:03:47.871Z,16.37
2019-02-20T11:04:53.705Z,16.57
2019-02-20T11:05:06.185Z,16.68
2019-02-20T11:05:17.575Z,16.58
2019-02-20T11:05:30.596Z,16.62
2019-02-20T11:05:40.643Z,16.58
2019-02-20T11:06:40.881Z,16.39
2019-02-20T11:07:40.629Z,16.37
2019-02-20T11:08:41.634Z,16.43
2019-02-20T11:09:42.810Z,16.34
2019-02-20T11:10:42.344Z,16.51
2019-02-20T11:11:42.838Z,16.65
2019-02-20T11:12:43.820Z,16.47
2019-02-20T11:13:45.031Z,16.02
2019-02-20T11:14:45.483Z,15.73
2019-02-20T11:15:46.692Z,15.73
2019-02-20T11:16:50.656Z,15.63
2019-02-20T11:17:01.714Z,15.67
2019-02-20T11:17:59.227Z,15.72
2019-02-20T11:18:59.961Z,15.76
2019-02-20T11:20:00.483Z,15.88
2019-02-20T11:21:02.129Z,15.94
2019-02-20T11:22:02.833Z,15.75
2019-02-20T11:23:03.271Z,15.83
2019-02-20T11:24:03.699Z,15.75
2019-02-20T11:25:04.797Z,15.72
2019-02-20T11:26:06.715Z,15.51
2019-02-20T11:27:07.144Z,15.3
2019-02-20T11:28:07.335Z,15.27
2019-02-20T11:29:08.203Z,15.29
2019-02-20T11:30:08.622Z,15.02
2019-02-20T11:31:09.740Z,14.73
2019-02-20T11:32:13.429Z,14.51
2019-02-20T11:33:12.774Z,14.4
2019-02-20T11:34:12.921Z,14.33
2019-02-20T11:35:13.904Z,14.33
2019-02-20T11:36:18.909Z,14.56
2019-02-20T11:36:30.838Z,14.59
2019-02-20T11:37:28.313Z,14.49
2019-02-20T11:38:34.388Z,14.48
2019-02-20T11:38:41.453Z,14.45
2019-02-20T11:39:42.961Z,14.66
2019-02-20T11:40:42.057Z,14.7
2019-02-20T11:41:44.420Z,14.96
2019-02-20T11:42:44.851Z,15.05
2019-02-20T11:43:45.564Z,15.14
2019-02-20T11:44:46.335Z,15.32
2019-02-20T11:45:51.002Z,15.47
2019-02-20T11:46:48.722Z,15.59
2019-02-20T11:47:50.226Z,15.69
2019-02-20T11:48:50.561Z,15.8
2019-02-20T11:49:50.996Z,15.81
2019-02-20T11:50:52.603Z,15.62
2019-02-20T11:51:53.030Z,15.47
2019-02-20T11:52:57.702Z,15.32
2019-02-20T11:53:07.006Z,15.32
2019-02-20T11:54:06.403Z,15.05
2019-02-20T11:55:07.131Z,15.07
2019-02-20T11:56:07.358Z,15.05
2019-02-20T11:57:13.911Z,14.87
2019-02-20T11:57:23.935Z,14.85
2019-02-20T11:58:22.284Z,14.85
2019-02-20T11:59:24.274Z,14.7
2019-02-20T12:00:23.983Z,14.52
2019-02-20T12:01:24.186Z,14.52
2019-02-20T12:02:26.929Z,14.43
2019-02-20T12:03:27.362Z,14.48
2019-02-20T12:04:28.160Z,14.4
2019-02-20T12:05:29.272Z,14.31
2019-02-20T12:06:29.146Z,14.19
2019-02-20T12:07:30.355Z,14.26
2019-02-20T12:08:30.945Z,14.31
2019-02-20T12:09:31.971Z,14.62
2019-02-20T12:10:32.395Z,14.73
2019-02-20T12:11:33.107Z,14.77
2019-02-20T12:12:34.934Z,14.86
2019-02-20T12:13:35.085Z,14.74
2019-02-20T12:14:36.024Z,14.56
2019-02-20T12:15:36.457Z,14.55
2019-02-20T12:16:38.168Z,14.52
2019-02-20T12:17:38.870Z,14.49
2019-02-20T12:18:24.543Z,14.38
2019-02-20T12:19:24.728Z,14.48
2019-02-20T12:20:25.449Z,14.7
2019-02-20T12:21:26.783Z,14.87
2019-02-20T12:22:26.768Z,15
2019-02-20T12:23:41.137Z,15.3
2019-02-20T12:24:45.951Z,15.43
2019-02-20T12:24:59.335Z,15.44
2019-02-20T12:25:08.640Z,15.48
2019-02-20T12:25:20.115Z,15.55
2019-02-20T12:26:24.061Z,15.12
2019-02-20T12:26:35.986Z,15.14
2019-02-20T12:27:32.986Z,14.96
2019-02-20T12:28:31.817Z,14.71
2019-02-20T12:29:32.972Z,14.62
2019-02-20T12:30:33.972Z,14.45
2019-02-20T12:31:35.019Z,14.52
2019-02-20T12:32:34.754Z,14.3
2019-02-20T12:33:35.741Z,14.44
2019-02-20T12:34:36.765Z,14.33
2019-02-20T12:35:38.820Z,14.31
2019-02-20T12:36:41.555Z,14.05
2019-02-20T12:37:40.303Z,13.98
2019-02-20T12:38:40.960Z,13.93
2019-02-20T12:39:41.670Z,13.89
2019-02-20T12:40:42.373Z,14
2019-02-20T12:41:42.804Z,14.04
2019-02-20T12:42:43.506Z,13.93
2019-02-20T12:43:45.215Z,14.03
2019-02-20T12:44:45.522Z,14.2
2019-02-20T12:45:45.682Z,14.28
2019-02-20T12:46:48.262Z,14.36
2019-02-20T12:47:47.339Z,14.26
2019-02-20T12:48:47.494Z,14.33
2019-02-20T12:49:48.203Z,14.4
2019-02-20T12:50:48.849Z,14.33
2019-02-20T12:51:49.020Z,14.26
2019-02-20T12:52:49.314Z,14.38
2019-02-20T12:53:50.633Z,14.3
2019-02-20T12:54:51.336Z,14.3
2019-02-20T12:55:51.769Z,14.34
2019-02-20T12:56:52.485Z,14.45
2019-02-20T12:57:53.629Z,14.34
2019-02-20T12:58:54.351Z,14.41
2019-02-20T12:59:54.984Z,14.31
2019-02-20T13:00:55.428Z,14.37
2019-02-20T13:01:56.662Z,14.45
2019-02-20T13:02:56.742Z,14.61